sensor_id;sensor_type;location;lat;lon;timestamp;temperature;humidity
44707;DHT22;30433;45.596;8.408;2022-09-09T05:59:45;17.80;99.90
44707;DHT22;30433;45.596;8.408;2022-09-09T06:05:47;18.10;99.90
44707;DHT22;30433;45.596;8.408;2022-09-09T06:11:58;18.40;99.90
44707;DHT22;30433;45.596;8.408;2022-09-09T06:18:01;18.00;99.90
44707;DHT22;30433;45.596;8.408;2022-09-09T06:24:04;18.10;99.90
44707;DHT22;30433;45.596;8.408;2022-09-09T06:30:09;18.10;99.90
44707;DHT22;30433;45.596;8.408;2022-09-09T06:36:16;18.50;99.90
44707;DHT22;30433;45.596;8.408;2022-09-09T06:42:18;18.60;99.90
44707;DHT22;30433;45.596;8.408;2022-09-09T06:48:20;18.50;99.90
44707;DHT22;30433;45.596;8.408;2022-09-09T06:54:24;18.60;99.90
44707;DHT22;30433;45.596;8.408;2022-09-09T07:00:26;18.70;99.90
44707;DHT22;30433;45.596;8.408;2022-09-09T07:06:30;18.80;99.90
44707;DHT22;30433;45.596;8.408;2022-09-09T07:12:34;18.80;99.90
44707;DHT22;30433;45.596;8.408;2022-09-09T07:18:37;18.90;99.90
44707;DHT22;30433;45.596;8.408;2022-09-09T07:24:39;19.00;99.90
44707;DHT22;30433;45.596;8.408;2022-09-09T07:30:42;19.10;99.90
44707;DHT22;30433;45.596;8.408;2022-09-09T07:36:45;19.10;99.90
44707;DHT22;30433;45.596;8.408;2022-09-09T07:42:47;19.30;99.90
44707;DHT22;30433;45.596;8.408;2022-09-09T07:48:52;19.40;99.90
44707;DHT22;30433;45.596;8.408;2022-09-09T07:54:54;19.50;99.90
44707;DHT22;30433;45.596;8.408;2022-09-09T08:00:57;19.80;99.90
44707;DHT22;30433;45.596;8.408;2022-09-09T08:07:01;19.90;99.90
44707;DHT22;30433;45.596;8.408;2022-09-09T08:13:03;19.90;99.90
44707;DHT22;30433;45.596;8.408;2022-09-09T08:19:06;20.20;99.90
44707;DHT22;30433;45.596;8.408;2022-09-09T08:25:09;20.80;99.90
44707;DHT22;30433;45.596;8.408;2022-09-09T08:31:15;21.40;99.90
44707;DHT22;30433;45.596;8.408;2022-09-09T08:37:17;21.30;99.90
44707;DHT22;30433;45.596;8.408;2022-09-09T08:43:23;21.50;99.90
44707;DHT22;30433;45.596;8.408;2022-09-09T08:49:44;21.70;99.90
44707;DHT22;30433;45.596;8.408;2022-09-09T08:55:49;21.90;99.90
44707;DHT22;30433;45.596;8.408;2022-09-09T09:02:01;21.90;99.90
44707;DHT22;30433;45.596;8.408;2022-09-09T09:08:12;22.40;99.90
44707;DHT22;30433;45.596;8.408;2022-09-09T09:14:20;22.50;99.90
44707;DHT22;30433;45.596;8.408;2022-09-09T13:42:55;25.60;98.00
44707;DHT22;30433;45.596;8.408;2022-09-09T13:49:19;25.30;96.60
44707;DHT22;30433;45.596;8.408;2022-09-09T14:02:21;25.60;96.70
44707;DHT22;30433;45.596;8.408;2022-09-09T14:08:25;25.20;96.20
44707;DHT22;30433;45.596;8.408;2022-09-09T14:14:29;25.20;95.90
44707;DHT22;30433;45.596;8.408;2022-09-09T14:27:29;25.30;96.80
44707;DHT22;30433;45.596;8.408;2022-09-09T14:54:16;25.10;96.70
44707;DHT22;30433;45.596;8.408;2022-09-09T15:27:59;24.90;96.00
44707;DHT22;30433;45.596;8.408;2022-09-09T15:34:03;24.90;96.20
44707;DHT22;30433;45.596;8.408;2022-09-09T15:40:06;24.90;96.70
44707;DHT22;30433;45.596;8.408;2022-09-09T15:46:24;25.00;96.60
44707;DHT22;30433;45.596;8.408;2022-09-09T15:52:31;24.90;96.30
44707;DHT22;30433;45.596;8.408;2022-09-09T16:05:52;24.80;96.00
44707;DHT22;30433;45.596;8.408;2022-09-09T16:11:56;24.70;96.30
44707;DHT22;30433;45.596;8.408;2022-09-09T16:17:58;24.70;95.00
44707;DHT22;30433;45.596;8.408;2022-09-09T16:30:59;24.60;96.20
44707;DHT22;30433;45.596;8.408;2022-09-09T16:58:30;24.00;97.70
44707;DHT22;30433;45.596;8.408;2022-09-09T17:11:30;23.80;97.90
44707;DHT22;30433;45.596;8.408;2022-09-09T17:17:33;23.60;97.50
44707;DHT22;30433;45.596;8.408;2022-09-09T17:23:36;23.50;97.80
44707;DHT22;30433;45.596;8.408;2022-09-09T17:29:39;23.30;97.60
44707;DHT22;30433;45.596;8.408;2022-09-09T17:35:45;23.10;97.80
44707;DHT22;30433;45.596;8.408;2022-09-09T17:48:45;22.50;99.90
44707;DHT22;30433;45.596;8.408;2022-09-09T18:08:25;21.80;99.90
44707;DHT22;30433;45.596;8.408;2022-09-09T18:21:25;21.50;99.90
44707;DHT22;30433;45.596;8.408;2022-09-09T18:27:31;21.30;99.90
44707;DHT22;30433;45.596;8.408;2022-09-09T18:40:31;21.60;99.90
44707;DHT22;30433;45.596;8.408;2022-09-09T18:46:36;21.30;99.90
44707;DHT22;30433;45.596;8.408;2022-09-09T18:52:41;21.10;99.90
44707;DHT22;30433;45.596;8.408;2022-09-09T18:58:44;21.20;99.90
44707;DHT22;30433;45.596;8.408;2022-09-09T19:04:49;21.10;99.90
44707;DHT22;30433;45.596;8.408;2022-09-09T19:10:52;20.90;99.90
44707;DHT22;30433;45.596;8.408;2022-09-09T20:45:08;20.50;99.90
44707;DHT22;30433;45.596;8.408;2022-09-09T20:51:15;20.10;99.90
44707;DHT22;30433;45.596;8.408;2022-09-09T21:25:04;19.60;99.90
44707;DHT22;30433;45.596;8.408;2022-09-09T21:38:04;19.70;99.90
44707;DHT22;30433;45.596;8.408;2022-09-09T21:44:08;19.50;99.90
44707;DHT22;30433;45.596;8.408;2022-09-09T21:50:11;19.60;99.90
44707;DHT22;30433;45.596;8.408;2022-09-09T21:56:15;19.40;99.90
44707;DHT22;30433;45.596;8.408;2022-09-09T22:02:19;19.10;99.90
44707;DHT22;30433;45.596;8.408;2022-09-09T22:15:44;18.70;99.90
44707;DHT22;30433;45.596;8.408;2022-09-09T22:35:55;18.20;99.90
44707;DHT22;30433;45.596;8.408;2022-09-09T22:41:57;17.90;99.90
44707;DHT22;30433;45.596;8.408;2022-09-09T22:48:02;18.20;99.90
44707;DHT22;30433;45.596;8.408;2022-09-09T23:01:18;18.50;99.90
44707;DHT22;30433;45.596;8.408;2022-09-09T23:07:20;18.10;99.90
44707;DHT22;30433;45.596;8.408;2022-09-09T23:20:21;18.10;99.90
44707;DHT22;30433;45.596;8.408;2022-09-09T23:26:26;18.00;99.90
44707;DHT22;30433;45.596;8.408;2022-09-09T23:32:29;18.00;99.90
44707;DHT22;30433;45.596;8.408;2022-09-09T23:59:18;17.70;99.90
